Time;durP1;ratioP1;P1;durP2;ratioP2;P2;SDS_P1;SDS_P2;PMS_P1;PMS_P2;Temp;Humidity;BMP_temperature;BMP_pressure;BME280_temperature;BME280_humidity;BME280_pressure;Samples;Min_cycle;Max_cycle;Signal;HPM_P1;HPM_P2
2022/05/07 00:01:21;;;;;;;25.80;21.00;;;;;;;;;;5091854;28;20378;-82
2022/05/07 00:03:47;;;;;;;29.67;21.75;;;;;;;;;;5092167;28;20043;-82
2022/05/07 00:06:14;;;;;;;26.60;21.75;;;;;;;;;;5091326;28;20036;-82
2022/05/07 00:08:40;;;;;;;29.38;22.75;;;;;;;;;;5074906;28;20398;-82
2022/05/07 00:11:06;;;;;;;27.50;21.55;;;;;;;;;;5091381;28;20039;-82
2022/05/07 00:13:32;;;;;;;29.52;22.35;;;;;;;;;;5074564;28;20517;-82
2022/05/07 00:18:43;;;;;;;25.98;20.25;;;;;;;;;;5091765;28;20131;-82
2022/05/07 00:21:09;;;;;;;24.98;20.00;;;;;;;;;;5091486;28;20032;-82
2022/05/07 00:23:37;;;;;;;26.98;22.08;;;;;;;;;;5074401;28;20067;-82
2022/05/07 00:26:03;;;;;;;30.98;22.27;;;;;;;;;;5091423;28;20399;-82
2022/05/07 00:28:30;;;;;;;24.33;19.48;;;;;;;;;;5091142;28;20070;-82
2022/05/07 00:30:56;;;;;;;24.77;20.92;;;;;;;;;;5091177;28;20036;-82
2022/05/07 00:33:22;;;;;;;26.73;21.08;;;;;;;;;;5085928;28;20042;-82
2022/05/07 00:35:49;;;;;;;31.08;24.48;;;;;;;;;;5067518;28;20057;-82
2022/05/07 00:38:15;;;;;;;32.00;23.20;;;;;;;;;;5070721;28;20105;-82
2022/05/07 00:40:41;;;;;;;26.33;21.48;;;;;;;;;;5087773;28;20079;-82
2022/05/07 00:43:08;;;;;;;30.27;24.30;;;;;;;;;;5071129;28;20510;-82
2022/05/07 00:45:34;;;;;;;32.50;24.85;;;;;;;;;;5087513;28;20513;-82
2022/05/07 00:48:00;;;;;;;33.50;25.83;;;;;;;;;;5068903;28;20040;-82
2022/05/07 00:53:12;;;;;;;35.85;26.90;;;;;;;;;;5087730;28;20403;-82
2022/05/07 00:55:38;;;;;;;37.67;26.75;;;;;;;;;;5070541;28;20055;-82
2022/05/07 00:58:04;;;;;;;35.08;26.17;;;;;;;;;;5070653;28;20051;-82
2022/05/07 01:00:30;;;;;;;31.38;23.98;;;;;;;;;;5087424;28;20169;-82
2022/05/07 01:02:57;;;;;;;31.58;24.48;;;;;;;;;;5087243;28;20048;-82
2022/05/07 01:05:23;;;;;;;29.15;22.27;;;;;;;;;;5087713;28;20040;-82
2022/05/07 01:07:50;;;;;;;31.77;24.23;;;;;;;;;;5087602;28;20036;-82
2022/05/07 01:10:16;;;;;;;27.70;23.35;;;;;;;;;;5088160;28;20434;-82
2022/05/07 01:12:43;;;;;;;30.45;23.23;;;;;;;;;;5087605;28;20402;-82
2022/05/07 01:15:10;;;;;;;33.85;25.25;;;;;;;;;;5087804;28;20070;-82
2022/05/07 01:17:36;;;;;;;33.03;24.73;;;;;;;;;;5070406;28;20043;-82
2022/05/07 01:20:02;;;;;;;28.88;22.02;;;;;;;;;;5089540;28;20059;-82
2022/05/07 01:22:33;;;;;;;31.70;24.50;;;;;;;;;;5091500;28;20101;-82
2022/05/07 01:24:59;;;;;;;31.75;23.30;;;;;;;;;;5091364;28;20046;-82
2022/05/07 01:27:26;;;;;;;31.50;23.75;;;;;;;;;;5074558;28;20416;-82
2022/05/07 01:29:52;;;;;;;31.20;23.63;;;;;;;;;;5091476;28;20617;-82
2022/05/07 01:32:18;;;;;;;30.77;23.83;;;;;;;;;;5091166;28;20036;-82
2022/05/07 01:34:44;;;;;;;31.75;24.70;;;;;;;;;;5091264;28;20524;-82
2022/05/07 01:37:10;;;;;;;36.42;27.08;;;;;;;;;;5074403;28;20522;-82
2022/05/07 01:39:36;;;;;;;38.45;25.48;;;;;;;;;;5074460;28;20036;-82
2022/05/07 01:42:03;;;;;;;36.45;29.17;;;;;;;;;;5091042;28;20075;-82
2022/05/07 01:44:29;;;;;;;37.00;28.35;;;;;;;;;;5074325;28;20051;-82
2022/05/07 01:49:39;;;;;;;38.05;29.42;;;;;;;;;;5090725;28;20046;-81
2022/05/07 01:52:06;;;;;;;37.03;28.15;;;;;;;;;;5082128;28;20038;-82
2022/05/07 01:54:32;;;;;;;32.53;25.15;;;;;;;;;;5090822;28;20174;-82
2022/05/07 01:56:58;;;;;;;36.13;27.42;;;;;;;;;;5074328;28;20043;-82
2022/05/07 01:59:24;;;;;;;29.88;23.80;;;;;;;;;;5091253;28;20357;-82
2022/05/07 02:01:56;;;;;;;33.95;24.45;;;;;;;;;;5074376;28;20032;-82
2022/05/07 02:04:23;;;;;;;31.23;24.98;;;;;;;;;;5090436;28;20032;-82
2022/05/07 02:06:49;;;;;;;34.50;26.45;;;;;;;;;;5090657;28;20063;-82
2022/05/07 02:09:15;;;;;;;38.00;29.75;;;;;;;;;;5090336;28;20047;-82
2022/05/07 02:11:41;;;;;;;37.70;29.42;;;;;;;;;;5090529;28;20039;-82
2022/05/07 02:14:07;;;;;;;38.55;30.45;;;;;;;;;;5090551;28;20558;-82
2022/05/07 02:16:33;;;;;;;40.47;29.98;;;;;;;;;;5076720;28;20044;-82
2022/05/07 02:18:59;;;;;;;33.10;25.65;;;;;;;;;;5072034;28;20407;-82
2022/05/07 02:21:26;;;;;;;38.38;30.33;;;;;;;;;;5090203;28;20131;-82
2022/05/07 02:23:52;;;;;;;40.70;30.65;;;;;;;;;;5073278;28;20040;-82
2022/05/07 02:26:18;;;;;;;33.92;27.98;;;;;;;;;;5089958;28;20427;-82
2022/05/07 02:28:44;;;;;;;38.15;29.15;;;;;;;;;;5073398;28;20047;-82
2022/05/07 02:31:11;;;;;;;36.10;28.42;;;;;;;;;;5089976;28;20036;-82
2022/05/07 02:33:37;;;;;;;35.58;28.58;;;;;;;;;;5090221;28;20047;-82
2022/05/07 02:36:03;;;;;;;38.50;29.45;;;;;;;;;;5094061;28;20052;-82
2022/05/07 02:38:29;;;;;;;36.65;28.58;;;;;;;;;;5089431;28;20070;-82
2022/05/07 02:43:40;;;;;;;36.78;28.67;;;;;;;;;;5100506;28;20107;-82
2022/05/07 02:46:06;;;;;;;37.33;30.00;;;;;;;;;;5087699;28;20071;-82
2022/05/07 02:48:36;;;;;;;34.88;28.40;;;;;;;;;;5106495;28;20446;-82
2022/05/07 02:51:05;;;;;;;31.30;25.75;;;;;;;;;;5096293;28;20046;-81
2022/05/07 02:53:31;;;;;;;36.80;28.67;;;;;;;;;;5099131;28;20032;-81
2022/05/07 02:55:58;;;;;;;37.28;28.40;;;;;;;;;;5104720;28;20039;-81
2022/05/07 02:58:25;;;;;;;37.95;28.95;;;;;;;;;;5076663;28;20044;-81
2022/05/07 03:00:51;;;;;;;32.33;25.33;;;;;;;;;;5103806;28;20044;-81
2022/05/07 03:03:17;;;;;;;37.05;27.70;;;;;;;;;;5099561;28;20040;-81
2022/05/07 03:05:43;;;;;;;33.17;27.30;;;;;;;;;;5074149;28;20072;-81
2022/05/07 03:08:09;;;;;;;36.90;27.73;;;;;;;;;;5089028;28;20071;-81
2022/05/07 03:10:36;;;;;;;37.33;27.73;;;;;;;;;;5087073;28;20036;-81
2022/05/07 03:13:03;;;;;;;35.60;28.55;;;;;;;;;;5082116;28;20032;-81
2022/05/07 03:15:29;;;;;;;33.40;27.02;;;;;;;;;;5078823;28;20128;-81
2022/05/07 03:17:55;;;;;;;32.15;26.80;;;;;;;;;;5105830;28;20071;-81
2022/05/07 03:20:22;;;;;;;31.55;26.63;;;;;;;;;;5077452;28;20549;-81
2022/05/07 03:22:48;;;;;;;32.00;26.25;;;;;;;;;;5100442;28;20504;-81
2022/05/07 03:25:15;;;;;;;32.55;26.02;;;;;;;;;;5072535;28;20097;-81
2022/05/07 03:27:41;;;;;;;36.00;27.17;;;;;;;;;;5089018;28;20403;-81
2022/05/07 03:30:08;;;;;;;36.67;29.33;;;;;;;;;;5076849;28;20043;-81
2022/05/07 03:32:35;;;;;;;31.52;26.42;;;;;;;;;;5100835;28;20169;-81
2022/05/07 03:35:01;;;;;;;32.80;26.67;;;;;;;;;;5089521;28;20537;-81
2022/05/07 03:37:28;;;;;;;32.63;26.05;;;;;;;;;;5075280;28;20127;-81
2022/05/07 03:39:54;;;;;;;30.88;26.75;;;;;;;;;;5075220;28;20227;-81
2022/05/07 03:42:20;;;;;;;33.10;26.80;;;;;;;;;;5074736;28;20044;-81
2022/05/07 03:44:47;;;;;;;30.65;25.52;;;;;;;;;;5091807;28;20059;-81
2022/05/07 03:47:13;;;;;;;30.95;26.75;;;;;;;;;;5091832;28;20035;-80
2022/05/07 03:49:39;;;;;;;33.28;26.75;;;;;;;;;;5088339;28;20038;-80
2022/05/07 03:54:51;;;;;;;34.30;28.50;;;;;;;;;;5087149;28;20104;-81
2022/05/07 03:57:17;;;;;;;37.47;30.20;;;;;;;;;;5090178;28;20036;-81
2022/05/07 03:59:43;;;;;;;32.65;27.15;;;;;;;;;;5075006;28;20509;-81
2022/05/07 04:02:10;;;;;;;30.23;25.65;;;;;;;;;;5091637;28;20130;-81
2022/05/07 04:04:36;;;;;;;33.58;27.98;;;;;;;;;;5085423;28;20066;-81
2022/05/07 04:07:04;;;;;;;30.58;25.63;;;;;;;;;;5074696;28;20042;-81
2022/05/07 04:09:30;;;;;;;29.02;23.55;;;;;;;;;;5090708;28;20039;-81
2022/05/07 04:11:56;;;;;;;30.75;24.85;;;;;;;;;;5073089;28;20036;-81
2022/05/07 04:14:25;;;;;;;35.65;28.15;;;;;;;;;;5089826;28;20080;-81
2022/05/07 04:16:51;;;;;;;34.65;27.00;;;;;;;;;;5076448;28;20036;-81
2022/05/07 04:19:18;;;;;;;34.78;27.77;;;;;;;;;;5086671;28;20047;-81
2022/05/07 04:21:44;;;;;;;35.72;29.25;;;;;;;;;;5082771;28;20074;-81
2022/05/07 04:24:10;;;;;;;33.92;27.23;;;;;;;;;;5084779;28;20403;-81
2022/05/07 04:26:36;;;;;;;34.92;28.25;;;;;;;;;;5091440;28;20403;-81
2022/05/07 04:29:02;;;;;;;35.88;27.98;;;;;;;;;;5087815;28;20403;-80
2022/05/07 04:31:29;;;;;;;30.40;26.10;;;;;;;;;;5091140;28;20522;-81
2022/05/07 04:33:55;;;;;;;30.92;26.25;;;;;;;;;;5091016;28;20040;-81
2022/05/07 04:36:21;;;;;;;34.10;28.55;;;;;;;;;;5078265;28;20059;-80
2022/05/07 04:38:47;;;;;;;32.13;28.52;;;;;;;;;;5090175;28;20051;-80
2022/05/07 04:41:13;;;;;;;34.45;27.98;;;;;;;;;;5094592;28;20043;-81
2022/05/07 04:43:39;;;;;;;30.83;26.13;;;;;;;;;;5077097;28;20504;-81
2022/05/07 04:46:05;;;;;;;33.63;26.58;;;;;;;;;;5102475;28;20058;-81
2022/05/07 04:48:31;;;;;;;32.05;26.63;;;;;;;;;;5075986;28;20075;-81
2022/05/07 04:50:58;;;;;;;31.60;26.23;;;;;;;;;;5091058;28;20406;-81
2022/05/07 04:53:24;;;;;;;32.38;25.17;;;;;;;;;;5083691;28;20048;-82
2022/05/07 04:55:50;;;;;;;28.35;24.30;;;;;;;;;;5101230;28;20112;-82
2022/05/07 04:58:17;;;;;;;33.42;25.42;;;;;;;;;;5089281;28;20071;-81
2022/05/07 05:00:43;;;;;;;28.92;24.42;;;;;;;;;;5088232;28;20058;-82
2022/05/07 05:03:10;;;;;;;32.13;25.42;;;;;;;;;;5097063;28;20411;-82
2022/05/07 05:05:38;;;;;;;31.60;25.70;;;;;;;;;;5080283;28;20040;-82
2022/05/07 05:08:04;;;;;;;30.83;26.42;;;;;;;;;;5105284;28;20053;-82
2022/05/07 05:10:30;;;;;;;29.20;24.25;;;;;;;;;;5088985;28;20035;-82
2022/05/07 05:12:56;;;;;;;34.47;27.70;;;;;;;;;;5101732;28;20043;-81
2022/05/07 05:15:22;;;;;;;32.47;26.83;;;;;;;;;;5083635;28;20130;-81
2022/05/07 05:17:48;;;;;;;31.23;25.92;;;;;;;;;;5093897;28;20068;-81
2022/05/07 05:20:15;;;;;;;30.80;24.80;;;;;;;;;;5106718;28;20040;-81
2022/05/07 05:22:50;;;;;;;31.33;26.52;;;;;;;;;;5083935;28;20084;-81
2022/05/07 05:25:19;;;;;;;33.13;28.80;;;;;;;;;;5083900;28;20035;-81
2022/05/07 05:27:46;;;;;;;32.30;28.80;;;;;;;;;;5093228;28;20055;-81
2022/05/07 05:30:12;;;;;;;35.13;28.55;;;;;;;;;;5088364;28;20084;-81
2022/05/07 05:32:38;;;;;;;33.13;27.33;;;;;;;;;;5079556;28;20036;-81
2022/05/07 05:35:05;;;;;;;40.50;31.63;;;;;;;;;;5093880;28;20052;-81
2022/05/07 05:37:31;;;;;;;34.17;28.13;;;;;;;;;;5082145;28;20043;-81
2022/05/07 05:39:57;;;;;;;30.85;26.65;;;;;;;;;;5063004;28;20488;-81
2022/05/07 05:42:24;;;;;;;34.88;28.60;;;;;;;;;;5075688;28;20044;-82
2022/05/07 05:44:50;;;;;;;32.78;27.27;;;;;;;;;;5069879;28;20055;-81
2022/05/07 05:47:16;;;;;;;38.80;30.77;;;;;;;;;;5087263;28;20047;-82
2022/05/07 05:49:42;;;;;;;31.55;26.55;;;;;;;;;;5086829;28;20036;-81
2022/05/07 05:52:09;;;;;;;37.58;30.45;;;;;;;;;;5086682;28;20064;-80
2022/05/07 05:54:35;;;;;;;37.22;30.05;;;;;;;;;;5086943;28;20123;-81
2022/05/07 05:57:02;;;;;;;33.72;29.83;;;;;;;;;;5056040;28;20046;-79
2022/05/07 05:59:28;;;;;;;33.50;27.63;;;;;;;;;;5066367;28;20040;-81
2022/05/07 06:01:54;;;;;;;36.45;30.10;;;;;;;;;;5057233;28;20119;-81
2022/05/07 06:04:21;;;;;;;35.17;28.63;;;;;;;;;;5063976;28;20068;-81
2022/05/07 06:06:47;;;;;;;33.55;27.38;;;;;;;;;;5072692;28;20040;-81
2022/05/07 06:09:13;;;;;;;34.00;29.17;;;;;;;;;;5090376;28;20035;-79
2022/05/07 06:11:39;;;;;;;35.13;29.02;;;;;;;;;;5090377;28;20032;-81
2022/05/07 06:14:05;;;;;;;33.25;27.17;;;;;;;;;;5090620;28;20082;-81
2022/05/07 06:16:32;;;;;;;30.80;25.08;;;;;;;;;;5090397;28;20153;-82
2022/05/07 06:18:58;;;;;;;28.08;24.70;;;;;;;;;;5073333;28;20040;-81
2022/05/07 06:21:25;;;;;;;32.25;26.33;;;;;;;;;;5090212;28;20093;-81
2022/05/07 06:23:51;;;;;;;32.28;26.65;;;;;;;;;;5073223;28;20036;-82
2022/05/07 06:29:02;;;;;;;32.13;26.05;;;;;;;;;;5073804;28;20044;-82
2022/05/07 06:31:30;;;;;;;32.28;27.48;;;;;;;;;;5090798;28;20406;-82
2022/05/07 06:33:57;;;;;;;31.25;27.52;;;;;;;;;;5090212;28;20039;-82
2022/05/07 06:36:23;;;;;;;34.85;27.83;;;;;;;;;;5096810;28;20063;-83
2022/05/07 06:38:49;;;;;;;32.13;26.98;;;;;;;;;;5110304;28;20083;-83
2022/05/07 06:41:16;;;;;;;32.65;27.55;;;;;;;;;;5097484;28;20077;-83
2022/05/07 06:43:42;;;;;;;33.45;28.98;;;;;;;;;;5102841;28;20131;-82
2022/05/07 06:46:08;;;;;;;31.88;26.80;;;;;;;;;;5105549;28;20131;-82
2022/05/07 06:48:34;;;;;;;27.98;25.00;;;;;;;;;;5093934;28;20032;-82
2022/05/07 06:51:01;;;;;;;31.05;26.90;;;;;;;;;;5109693;28;20036;-82
2022/05/07 06:53:27;;;;;;;31.55;27.52;;;;;;;;;;5102015;28;20031;-83
2022/05/07 06:55:56;;;;;;;29.13;24.38;;;;;;;;;;5098255;28;20040;-83
2022/05/07 06:58:24;;;;;;;32.83;28.10;;;;;;;;;;5078784;28;20036;-82
2022/05/07 07:00:50;;;;;;;28.77;25.65;;;;;;;;;;5106435;28;20734;-82
2022/05/07 07:03:16;;;;;;;32.13;27.00;;;;;;;;;;5100309;28;20075;-82
2022/05/07 07:05:43;;;;;;;32.67;27.27;;;;;;;;;;5081106;28;20290;-82
2022/05/07 07:08:11;;;;;;;32.38;28.83;;;;;;;;;;5099649;28;20054;-81
2022/05/07 07:10:37;;;;;;;32.47;26.65;;;;;;;;;;5092767;28;20053;-82
2022/05/07 07:13:04;;;;;;;28.58;25.48;;;;;;;;;;5100634;28;20089;-81
2022/05/07 07:15:30;;;;;;;31.13;26.33;;;;;;;;;;5110460;28;20039;-82
2022/05/07 07:17:57;;;;;;;32.97;27.95;;;;;;;;;;5077280;28;20042;-82
2022/05/07 07:20:24;;;;;;;31.35;27.08;;;;;;;;;;5095531;28;20126;-84
2022/05/07 07:22:50;;;;;;;30.83;25.80;;;;;;;;;;5092204;28;20051;-82
2022/05/07 07:25:17;;;;;;;30.48;26.13;;;;;;;;;;5103459;28;20040;-82
2022/05/07 07:27:43;;;;;;;28.98;25.30;;;;;;;;;;5093339;28;20083;-82
2022/05/07 07:30:09;;;;;;;28.65;24.88;;;;;;;;;;5108302;28;20040;-81
2022/05/07 07:32:35;;;;;;;26.60;23.65;;;;;;;;;;5093088;28;20039;-82
2022/05/07 07:35:05;;;;;;;26.65;23.02;;;;;;;;;;5103248;28;20059;-82
2022/05/07 07:37:32;;;;;;;28.13;23.70;;;;;;;;;;5096509;28;20043;-82
2022/05/07 07:40:00;;;;;;;26.90;23.13;;;;;;;;;;5094995;28;20051;-82
2022/05/07 07:42:27;;;;;;;28.92;24.65;;;;;;;;;;5086791;28;20069;-83
2022/05/07 07:50:29;;;;;;;27.80;22.55;;;;;;;;;;5136688;27;20021;-83
2022/05/07 07:52:55;;;;;;;29.88;23.73;;;;;;;;;;5103997;28;20044;-82
2022/05/07 07:55:22;;;;;;;27.05;22.92;;;;;;;;;;5109006;28;20075;-81
2022/05/07 07:57:49;;;;;;;26.77;23.27;;;;;;;;;;5092268;28;20074;-81
2022/05/07 08:00:16;;;;;;;26.30;23.50;;;;;;;;;;5082362;28;20517;-82
2022/05/07 08:02:55;;;;;;;33.15;23.77;;;;;;;;;;5097830;28;20061;-81
2022/05/07 08:05:40;;;;;;;28.73;25.55;;;;;;;;;;5103298;28;20039;-82
2022/05/07 08:13:38;;;;;;;28.77;24.85;;;;;;;;;;5109151;28;20134;-82
2022/05/07 08:16:04;;;;;;;27.85;24.02;;;;;;;;;;5108527;28;20035;-82
2022/05/07 08:18:31;;;;;;;26.95;23.92;;;;;;;;;;5097259;28;20044;-83
2022/05/07 08:20:57;;;;;;;28.98;24.67;;;;;;;;;;5092105;28;20672;-82
2022/05/07 08:23:25;;;;;;;31.27;26.13;;;;;;;;;;5105908;28;20112;-82
2022/05/07 08:25:52;;;;;;;30.27;26.30;;;;;;;;;;5084242;28;20066;-81
2022/05/07 08:28:18;;;;;;;31.67;25.77;;;;;;;;;;5097984;28;20146;-81
2022/05/07 08:30:45;;;;;;;27.92;24.77;;;;;;;;;;5108663;28;20067;-81
2022/05/07 08:33:11;;;;;;;29.42;25.23;;;;;;;;;;5106517;28;20050;-82
2022/05/07 08:35:38;;;;;;;29.05;25.88;;;;;;;;;;5090165;28;20110;-82
2022/05/07 08:38:04;;;;;;;31.67;25.55;;;;;;;;;;5090947;28;20051;-82
2022/05/07 08:40:31;;;;;;;30.98;24.70;;;;;;;;;;5073339;28;20042;-82
2022/05/07 08:42:57;;;;;;;28.13;24.38;;;;;;;;;;5089824;28;20044;-82
2022/05/07 08:45:24;;;;;;;26.63;23.58;;;;;;;;;;5072661;28;20044;-81
2022/05/07 08:47:53;;;;;;;30.27;25.20;;;;;;;;;;5089708;28;20119;-83
2022/05/07 08:50:19;;;;;;;29.33;24.55;;;;;;;;;;5089940;28;20075;-82
2022/05/07 08:52:46;;;;;;;29.55;24.63;;;;;;;;;;5091267;28;20032;-82
2022/05/07 08:55:16;;;;;;;26.90;22.05;;;;;;;;;;5074200;28;20452;-81
2022/05/07 08:57:44;;;;;;;23.98;20.67;;;;;;;;;;5089643;28;20154;-81
2022/05/07 09:00:11;;;;;;;32.63;23.45;;;;;;;;;;5087953;28;20051;-82
2022/05/07 09:02:39;;;;;;;27.27;24.10;;;;;;;;;;5089944;28;20069;-82
2022/05/07 09:05:05;;;;;;;28.02;24.35;;;;;;;;;;5072074;28;20048;-82
2022/05/07 09:07:32;;;;;;;27.85;23.88;;;;;;;;;;5090016;28;20510;-81
2022/05/07 09:09:58;;;;;;;30.85;26.50;;;;;;;;;;5090320;28;20130;-81
2022/05/07 09:12:25;;;;;;;28.60;25.48;;;;;;;;;;5090265;28;20143;-81
2022/05/07 09:14:52;;;;;;;28.33;24.95;;;;;;;;;;5089533;28;20044;-81
2022/05/07 09:17:19;;;;;;;30.73;25.17;;;;;;;;;;5089112;28;20410;-82
2022/05/07 09:19:45;;;;;;;29.73;24.83;;;;;;;;;;5071726;28;20430;-82
2022/05/07 09:22:11;;;;;;;29.60;24.85;;;;;;;;;;5088098;28;20044;-82
2022/05/07 09:24:38;;;;;;;33.58;25.33;;;;;;;;;;5072861;28;20109;-82
2022/05/07 09:27:04;;;;;;;30.63;25.45;;;;;;;;;;5089690;28;20040;-81
2022/05/07 09:29:31;;;;;;;30.00;24.45;;;;;;;;;;5088805;28;20094;-82
2022/05/07 09:32:13;;;;;;;27.45;24.17;;;;;;;;;;5089076;28;20040;-81
2022/05/07 09:37:57;;;;;;;29.60;23.77;;;;;;;;;;5011144;28;20045;-81
2022/05/07 09:40:24;;;;;;;26.40;23.08;;;;;;;;;;4995558;28;20107;-83
2022/05/07 09:42:50;;;;;;;31.60;24.90;;;;;;;;;;5054295;28;20052;-81
2022/05/07 09:45:17;;;;;;;30.25;25.25;;;;;;;;;;5075031;28;20040;-82
2022/05/07 09:47:43;;;;;;;27.92;23.75;;;;;;;;;;5093540;28;20483;-81
2022/05/07 09:58:39;;;;;;;30.13;23.13;;;;;;;;;;5091406;28;20058;-82
2022/05/07 10:01:25;;;;;;;32.13;23.48;;;;;;;;;;5093078;28;20036;-81
2022/05/07 10:04:05;;;;;;;25.55;21.75;;;;;;;;;;5076895;28;20040;-81
2022/05/07 10:06:45;;;;;;;25.63;21.98;;;;;;;;;;5090723;28;20411;-81
2022/05/07 10:09:12;;;;;;;28.08;20.65;;;;;;;;;;5092177;28;20458;-82
2022/05/07 10:11:38;;;;;;;22.73;19.55;;;;;;;;;;5092570;28;20503;-83
2022/05/07 10:14:04;;;;;;;31.77;21.05;;;;;;;;;;5074856;28;20083;-83
2022/05/07 10:16:31;;;;;;;29.08;19.55;;;;;;;;;;5075100;28;20036;-82
2022/05/07 10:18:57;;;;;;;27.67;18.08;;;;;;;;;;5091659;28;20113;-84
2022/05/07 10:21:23;;;;;;;20.83;16.45;;;;;;;;;;5092846;28;20561;-82
2022/05/07 10:23:53;;;;;;;24.88;17.42;;;;;;;;;;5074763;28;20126;-83
2022/05/07 10:26:21;;;;;;;21.50;17.13;;;;;;;;;;5091729;28;20483;-81
2022/05/07 10:28:47;;;;;;;22.40;17.55;;;;;;;;;;5092475;28;20182;-82
2022/05/07 10:31:18;;;;;;;24.00;18.38;;;;;;;;;;5076106;28;20039;-82
2022/05/07 10:33:44;;;;;;;24.27;18.42;;;;;;;;;;5092607;28;20063;-80
2022/05/07 10:36:11;;;;;;;21.25;17.55;;;;;;;;;;5090884;28;20067;-82
2022/05/07 10:38:38;;;;;;;23.88;20.15;;;;;;;;;;5073794;28;20048;-83
2022/05/07 10:41:07;;;;;;;32.42;24.17;;;;;;;;;;5075755;28;20052;-85
2022/05/07 10:43:42;;;;;;;33.40;28.05;;;;;;;;;;5074928;28;20040;-83
2022/05/07 10:46:20;;;;;;;33.35;27.90;;;;;;;;;;5091401;28;20121;-82
2022/05/07 10:49:04;;;;;;;35.38;31.52;;;;;;;;;;5077101;28;20415;-82
2022/05/07 10:51:32;;;;;;;38.17;31.15;;;;;;;;;;5092229;28;20097;-82
2022/05/07 10:54:03;;;;;;;37.10;29.60;;;;;;;;;;5076356;28;20052;-81
2022/05/07 10:56:34;;;;;;;39.47;33.67;;;;;;;;;;5075056;28;20126;-81
2022/05/07 10:59:01;;;;;;;39.47;33.42;;;;;;;;;;5092120;28;20048;-82
2022/05/07 11:01:28;;;;;;;37.70;33.03;;;;;;;;;;5075170;28;20093;-82
2022/05/07 11:04:03;;;;;;;37.25;30.65;;;;;;;;;;5091759;28;20480;-82
2022/05/07 11:06:29;;;;;;;40.13;33.50;;;;;;;;;;5091630;28;20047;-80
2022/05/07 11:08:55;;;;;;;38.78;30.88;;;;;;;;;;5075070;28;20032;-83
2022/05/07 11:11:24;;;;;;;38.38;31.25;;;;;;;;;;5092139;28;20085;-81
2022/05/07 11:13:54;;;;;;;35.40;29.15;;;;;;;;;;5073860;28;20082;-82
2022/05/07 11:16:22;;;;;;;39.55;30.08;;;;;;;;;;5073663;28;20522;-84
2022/05/07 11:18:53;;;;;;;34.45;29.35;;;;;;;;;;5092119;28;20101;-81
2022/05/07 11:21:23;;;;;;;33.00;27.40;;;;;;;;;;5074354;28;20044;-81
2022/05/07 11:24:01;;;;;;;31.50;25.80;;;;;;;;;;5092133;28;20043;-80
2022/05/07 11:26:27;;;;;;;33.15;25.80;;;;;;;;;;5091723;28;20048;-81
2022/05/07 11:28:54;;;;;;;32.60;26.25;;;;;;;;;;5091779;28;20043;-83
2022/05/07 11:31:26;;;;;;;32.40;25.45;;;;;;;;;;5091989;28;20127;-84
2022/05/07 11:34:01;;;;;;;32.65;26.73;;;;;;;;;;5074896;28;20365;-81
2022/05/07 11:36:28;;;;;;;33.35;28.15;;;;;;;;;;5078021;28;20059;-81
2022/05/07 11:38:58;;;;;;;31.25;27.02;;;;;;;;;;5094406;28;20091;-81
2022/05/07 11:41:24;;;;;;;35.25;29.77;;;;;;;;;;5094408;28;20505;-81
2022/05/07 11:46:46;;;;;;;34.65;27.70;;;;;;;;;;5093710;28;20044;-82
2022/05/07 11:49:13;;;;;;;35.05;28.00;;;;;;;;;;5093544;28;20032;-82
2022/05/07 11:51:39;;;;;;;35.30;30.42;;;;;;;;;;5083391;28;20073;-81
2022/05/07 11:54:11;;;;;;;36.15;28.40;;;;;;;;;;5093693;28;20092;-82
2022/05/07 11:56:47;;;;;;;35.08;28.42;;;;;;;;;;5094966;28;20043;-81
2022/05/07 11:59:16;;;;;;;37.13;30.13;;;;;;;;;;5093539;28;20422;-81
2022/05/07 12:01:48;;;;;;;35.20;29.58;;;;;;;;;;5077129;28;20040;-82
2022/05/07 12:04:14;;;;;;;35.08;28.67;;;;;;;;;;5093740;28;20047;-81
2022/05/07 12:06:40;;;;;;;38.47;30.90;;;;;;;;;;5087703;28;20047;-81
2022/05/07 12:09:10;;;;;;;35.47;28.75;;;;;;;;;;5085098;28;20518;-82
2022/05/07 12:11:37;;;;;;;36.72;30.42;;;;;;;;;;5076224;28;20047;-81
2022/05/07 12:14:03;;;;;;;33.78;27.30;;;;;;;;;;5077453;28;20050;-81
2022/05/07 12:19:14;;;;;;;35.53;28.10;;;;;;;;;;5111182;27;20054;-82
2022/05/07 12:29:55;;;;;;;24.33;18.75;;;;;;;;;;5093147;28;20039;-82
2022/05/07 12:32:24;;;;;;;24.55;18.00;;;;;;;;;;5088251;28;20104;-81
2022/05/07 12:34:50;;;;;;;24.02;18.73;;;;;;;;;;5100784;28;20430;-80
2022/05/07 12:37:17;;;;;;;24.17;18.35;;;;;;;;;;5095267;28;20043;-80
2022/05/07 12:39:43;;;;;;;23.70;18.90;;;;;;;;;;5085960;27;20046;-82
2022/05/07 12:42:17;;;;;;;28.60;20.05;;;;;;;;;;5102521;28;20597;-82
2022/05/07 12:44:43;;;;;;;28.42;20.25;;;;;;;;;;5101025;28;20039;-83
2022/05/07 12:47:09;;;;;;;26.13;20.95;;;;;;;;;;5091128;28;20031;-80
2022/05/07 12:49:36;;;;;;;23.58;19.10;;;;;;;;;;5074756;28;20066;-82
2022/05/07 12:52:03;;;;;;;22.70;16.42;;;;;;;;;;5079204;28;20032;-81
2022/05/07 12:54:32;;;;;;;18.35;13.48;;;;;;;;;;5074702;28;20169;-80
2022/05/07 12:56:59;;;;;;;17.38;12.55;;;;;;;;;;5086806;28;20113;-80
2022/05/07 12:59:25;;;;;;;15.85;12.07;;;;;;;;;;5073936;28;20040;-81
2022/05/07 13:01:51;;;;;;;15.88;11.40;;;;;;;;;;5092181;28;20039;-79
2022/05/07 13:04:20;;;;;;;16.10;11.48;;;;;;;;;;5085315;28;20573;-82
2022/05/07 13:06:46;;;;;;;15.50;11.85;;;;;;;;;;5091362;28;20051;-80
2022/05/07 13:09:12;;;;;;;14.90;11.80;;;;;;;;;;5090964;28;20393;-81
2022/05/07 13:11:38;;;;;;;16.25;11.77;;;;;;;;;;5090972;28;20042;-81
2022/05/07 13:14:04;;;;;;;19.92;12.40;;;;;;;;;;5095498;27;20497;-82
2022/05/07 13:16:30;;;;;;;17.55;11.52;;;;;;;;;;5074085;28;20040;-80
2022/05/07 13:18:57;;;;;;;16.60;11.50;;;;;;;;;;5070747;28;20503;-80
2022/05/07 13:21:23;;;;;;;17.63;12.02;;;;;;;;;;5095165;28;20133;-82
2022/05/07 13:23:49;;;;;;;15.40;11.85;;;;;;;;;;5079401;28;20039;-81
2022/05/07 13:26:15;;;;;;;21.48;13.55;;;;;;;;;;5090451;28;20494;-81
2022/05/07 13:28:41;;;;;;;20.65;12.30;;;;;;;;;;5091135;28;20047;-80
2022/05/07 13:31:07;;;;;;;18.17;11.65;;;;;;;;;;5090705;28;20040;-80
2022/05/07 13:33:33;;;;;;;16.42;11.45;;;;;;;;;;5092909;28;20194;-80
2022/05/07 13:35:59;;;;;;;19.70;12.45;;;;;;;;;;5101698;28;20058;-81
2022/05/07 13:38:27;;;;;;;15.85;11.15;;;;;;;;;;5092903;28;20475;-82
2022/05/07 13:40:53;;;;;;;21.10;12.82;;;;;;;;;;5090361;28;20086;-80
2022/05/07 13:43:19;;;;;;;30.60;12.82;;;;;;;;;;5091243;28;20040;-82
2022/05/07 13:45:45;;;;;;;16.35;12.05;;;;;;;;;;5090158;28;20040;-81
2022/05/07 13:48:12;;;;;;;17.75;12.90;;;;;;;;;;5090710;28;20040;-82
2022/05/07 13:50:39;;;;;;;18.42;14.15;;;;;;;;;;5097818;28;20347;-81
2022/05/07 13:53:06;;;;;;;16.27;12.45;;;;;;;;;;5104176;28;20032;-81
2022/05/07 13:55:32;;;;;;;16.42;12.38;;;;;;;;;;5073177;28;20122;-80
2022/05/07 13:57:59;;;;;;;17.17;13.38;;;;;;;;;;5073039;28;20067;-80
2022/05/07 14:00:25;;;;;;;20.42;14.13;;;;;;;;;;5090069;28;20040;-80
2022/05/07 14:02:51;;;;;;;19.67;13.52;;;;;;;;;;5090153;28;20470;-80
2022/05/07 14:05:17;;;;;;;16.02;12.25;;;;;;;;;;5087168;28;20329;-79
2022/05/07 14:07:44;;;;;;;16.20;10.50;;;;;;;;;;5090591;28;20076;-80
2022/05/07 14:10:11;;;;;;;13.40;9.18;;;;;;;;;;5070554;28;20046;-79
2022/05/07 14:12:37;;;;;;;13.73;8.93;;;;;;;;;;5090332;28;20038;-79
2022/05/07 14:15:03;;;;;;;11.45;7.75;;;;;;;;;;5090429;28;20042;-80
2022/05/07 14:17:29;;;;;;;12.95;6.88;;;;;;;;;;5090477;28;20046;-80
2022/05/07 14:19:59;;;;;;;13.43;7.80;;;;;;;;;;5091217;28;20038;-81
2022/05/07 14:22:26;;;;;;;12.82;7.57;;;;;;;;;;5089450;28;20051;-81
2022/05/07 14:24:54;;;;;;;9.02;6.22;;;;;;;;;;5089789;28;20100;-80
2022/05/07 14:27:20;;;;;;;9.23;5.80;;;;;;;;;;5091473;27;20497;-79
2022/05/07 14:29:48;;;;;;;9.05;5.20;;;;;;;;;;5097405;28;20040;-79
2022/05/07 14:32:14;;;;;;;8.00;4.43;;;;;;;;;;5092937;28;20422;-80
2022/05/07 14:34:41;;;;;;;9.05;4.35;;;;;;;;;;5075605;28;20048;-79
2022/05/07 14:37:07;;;;;;;10.20;4.15;;;;;;;;;;5076846;28;20134;-80
2022/05/07 14:39:35;;;;;;;6.95;3.33;;;;;;;;;;5088881;28;20039;-78
2022/05/07 14:42:01;;;;;;;5.60;3.28;;;;;;;;;;5092024;28;20039;-79
2022/05/07 14:44:27;;;;;;;6.35;2.60;;;;;;;;;;5092253;28;20047;-79
2022/05/07 14:46:53;;;;;;;6.97;2.90;;;;;;;;;;5095267;28;20286;-80
2022/05/07 14:49:21;;;;;;;8.85;2.95;;;;;;;;;;5100694;28;20437;-78
2022/05/07 14:51:47;;;;;;;7.82;3.83;;;;;;;;;;5094077;28;20075;-80
2022/05/07 14:54:13;;;;;;;8.80;3.78;;;;;;;;;;5091322;28;20126;-80
2022/05/07 14:56:39;;;;;;;8.85;5.05;;;;;;;;;;5094860;28;20039;-79
2022/05/07 14:59:06;;;;;;;12.48;7.20;;;;;;;;;;5100919;28;20031;-80
2022/05/07 15:01:32;;;;;;;18.05;9.32;;;;;;;;;;5098095;28;20113;-82
2022/05/07 15:03:58;;;;;;;11.25;8.27;;;;;;;;;;5081793;28;20089;-81
2022/05/07 15:06:24;;;;;;;12.93;8.48;;;;;;;;;;5097112;28;20176;-82
2022/05/07 15:11:35;;;;;;;12.60;8.07;;;;;;;;;;5093712;28;20040;-80
2022/05/07 15:14:01;;;;;;;10.77;7.82;;;;;;;;;;5092873;28;20070;-81